createdAt,value
2016-05-17T00:00:33.672Z,12.71
2016-05-17T00:01:33.753Z,12.81
2016-05-17T00:02:33.943Z,12.82
2016-05-17T00:03:34.023Z,12.78
2016-05-17T00:04:33.589Z,12.74
2016-05-17T00:05:33.528Z,12.69
2016-05-17T00:06:34.110Z,12.7
2016-05-17T00:07:33.706Z,12.69
2016-05-17T00:08:33.615Z,12.67
2016-05-17T00:09:33.883Z,12.67
2016-05-17T00:10:33.417Z,12.75
2016-05-17T00:11:33.436Z,12.75
2016-05-17T00:12:33.689Z,12.74
2016-05-17T00:13:33.504Z,12.71
2016-05-17T00:14:33.350Z,12.69
2016-05-17T00:15:33.602Z,12.7
2016-05-17T00:16:33.168Z,12.6
2016-05-17T00:17:33.249Z,12.67
2016-05-17T00:18:33.720Z,12.69
2016-05-17T00:19:33.896Z,12.64
2016-05-17T00:20:33.351Z,12.66
2016-05-17T00:21:34.291Z,12.66
2016-05-17T00:22:33.060Z,12.66
2016-05-17T00:23:33.187Z,12.59
2016-05-17T00:24:33.549Z,12.6
2016-05-17T00:25:33.379Z,12.64
2016-05-17T00:26:33.445Z,12.71
2016-05-17T00:27:32.854Z,12.64
2016-05-17T00:28:33.716Z,12.69
2016-05-17T00:29:33.156Z,12.69
2016-05-17T00:30:32.940Z,12.59
2016-05-17T00:31:33.317Z,12.66
2016-05-17T00:32:32.727Z,12.62
2016-05-17T00:33:33.729Z,12.62
2016-05-17T00:34:32.935Z,12.57
2016-05-17T00:35:32.844Z,12.62
2016-05-17T00:36:33.269Z,12.63
2016-05-17T00:37:33.756Z,12.62
2016-05-17T00:38:32.587Z,12.64
2016-05-17T00:39:32.792Z,12.59
2016-05-17T00:40:32.983Z,12.64
2016-05-17T00:41:33.594Z,12.54
2016-05-17T00:42:32.691Z,12.62
2016-05-17T00:43:32.913Z,12.67
2016-05-17T00:44:32.650Z,12.59
2016-05-17T00:45:32.575Z,12.7
2016-05-17T00:46:32.593Z,12.54
2016-05-17T00:47:33.221Z,12.67
2016-05-17T00:48:32.880Z,12.62
2016-05-17T00:49:32.788Z,12.57
2016-05-17T00:50:32.681Z,12.6
2016-05-17T00:51:32.637Z,12.7
2016-05-17T00:52:33.015Z,12.69
2016-05-17T00:53:33.221Z,12.62
2016-05-17T00:54:32.426Z,12.56
2016-05-17T00:55:32.288Z,12.64
2016-05-17T00:56:33.479Z,12.69
2016-05-17T00:57:32.481Z,12.67
2016-05-17T00:58:32.718Z,12.67
2016-05-17T00:59:32.190Z,12.62
2016-05-17T01:00:32.162Z,12.63
2016-05-17T01:01:32.399Z,12.66
2016-05-17T01:02:33.245Z,12.54
2016-05-17T01:03:31.967Z,12.56
2016-05-17T01:04:32.609Z,12.69
2016-05-17T01:05:33.144Z,12.62
2016-05-17T01:06:32.427Z,12.6
2016-05-17T01:07:32.071Z,12.67
2016-05-17T01:08:32.198Z,12.56
2016-05-17T01:09:32.342Z,12.59
2016-05-17T01:10:31.986Z,12.57
2016-05-17T01:11:33.019Z,12.51
2016-05-17T01:12:31.944Z,12.57
2016-05-17T01:13:32.087Z,12.66
2016-05-17T01:14:32.433Z,12.54
2016-05-17T01:15:32.186Z,12.59
2016-05-17T01:16:33.142Z,12.54
2016-05-17T01:17:31.630Z,12.59
2016-05-17T01:18:31.804Z,12.6
2016-05-17T01:19:32.150Z,12.56
2016-05-17T01:20:31.747Z,12.6
2016-05-17T01:21:32.093Z,12.57
2016-05-17T01:22:31.627Z,12.56
2016-05-17T01:23:31.301Z,12.66
2016-05-17T01:24:31.616Z,12.66
2016-05-17T01:25:31.916Z,12.59
2016-05-17T01:26:31.732Z,12.62
2016-05-17T01:27:31.796Z,12.66
2016-05-17T01:28:31.643Z,12.56
2016-05-17T01:29:32.239Z,12.6
2016-05-17T01:30:31.961Z,12.66
2016-05-17T01:31:31.292Z,12.64
2016-05-17T01:32:31.372Z,12.67
2016-05-17T01:33:31.720Z,12.63
2016-05-17T01:34:31.628Z,12.67
2016-05-17T01:35:32.006Z,12.64
2016-05-17T01:36:31.681Z,12.66
2016-05-17T01:37:32.401Z,12.64
2016-05-17T01:38:31.639Z,12.69
2016-05-17T01:39:31.188Z,12.62
2016-05-17T01:40:31.394Z,12.63
2016-05-17T01:41:31.287Z,12.66
2016-05-17T01:42:31.322Z,12.62
2016-05-17T01:43:31.136Z,12.6
2016-05-17T01:44:31.124Z,12.7
2016-05-17T01:45:30.563Z,12.64
2016-05-17T01:46:30.894Z,12.59
2016-05-17T01:47:31.069Z,12.59
2016-05-17T01:48:31.555Z,12.66
2016-05-17T01:49:31.028Z,12.62
2016-05-17T01:50:30.952Z,12.62
2016-05-17T01:51:31.908Z,12.59
2016-05-17T01:52:30.942Z,12.59
2016-05-17T01:53:30.898Z,12.63
2016-05-17T01:54:30.682Z,12.63
2016-05-17T01:55:31.106Z,12.6
2016-05-17T01:56:30.937Z,12.66
2016-05-17T01:57:31.580Z,12.59
2016-05-17T01:58:31.427Z,12.6
2016-05-17T01:59:30.757Z,12.67
2016-05-17T02:00:30.792Z,12.66
2016-05-17T02:01:30.295Z,12.6
2016-05-17T02:02:31.406Z,12.6
2016-05-17T02:03:31.846Z,12.64
2016-05-17T02:04:30.723Z,12.59
2016-05-17T02:05:30.618Z,12.66
2016-05-17T02:06:31.183Z,12.54
2016-05-17T02:07:31.295Z,12.56
2016-05-17T02:08:31.048Z,12.52
2016-05-17T02:09:31.378Z,12.59
2016-05-17T02:10:30.490Z,12.56
2016-05-17T02:11:30.493Z,12.59
2016-05-17T02:12:30.902Z,12.56
2016-05-17T02:13:30.405Z,12.59
2016-05-17T02:14:31.330Z,12.59
2016-05-17T02:15:30.800Z,12.54
2016-05-17T02:16:31.710Z,12.67
2016-05-17T02:17:31.025Z,12.57
2016-05-17T02:18:30.761Z,12.52
2016-05-17T02:19:30.297Z,12.49
2016-05-17T02:20:31.391Z,12.56
2016-05-17T02:21:30.504Z,12.54
2016-05-17T02:22:30.288Z,12.52
2016-05-17T02:23:30.416Z,12.57
2016-05-17T02:24:30.185Z,12.67
2016-05-17T02:25:30.140Z,12.54
2016-05-17T02:26:30.065Z,12.56
2016-05-17T02:27:30.036Z,12.52
2016-05-17T02:28:30.101Z,12.59
2016-05-17T02:29:30.182Z,12.59
2016-05-17T02:30:30.529Z,12.54
2016-05-17T02:31:30.047Z,12.6
2016-05-17T02:32:30.221Z,12.6
2016-05-17T02:33:29.849Z,12.63
2016-05-17T02:34:32.117Z,12.59
2016-05-17T02:35:30.511Z,12.59
2016-05-17T02:36:30.138Z,12.59
2016-05-17T02:37:29.767Z,12.62
2016-05-17T02:38:29.815Z,12.51
2016-05-17T02:39:30.022Z,12.49
2016-05-17T02:40:30.337Z,12.59
2016-05-17T02:41:29.636Z,12.59
2016-05-17T02:42:29.748Z,12.56
2016-05-17T02:43:29.672Z,12.52
2016-05-17T02:44:29.675Z,12.57
2016-05-17T02:45:29.584Z,12.56
2016-05-17T02:46:29.962Z,12.51
2016-05-17T02:47:29.450Z,12.56
2016-05-17T02:48:29.592Z,12.59
2016-05-17T02:49:29.548Z,12.62
2016-05-17T02:50:29.535Z,12.59
2016-05-17T02:51:29.851Z,12.6
2016-05-17T02:52:29.416Z,12.56
2016-05-17T02:53:29.403Z,12.59
2016-05-17T02:54:29.655Z,12.52
2016-05-17T02:55:29.783Z,12.63
2016-05-17T02:56:30.161Z,12.67
2016-05-17T02:57:29.195Z,12.62
2016-05-17T02:58:30.807Z,12.57
2016-05-17T02:59:29.138Z,12.62
2016-05-17T03:00:29.907Z,12.59
2016-05-17T03:01:29.674Z,12.49
2016-05-17T03:02:29.646Z,12.57
2016-05-17T03:03:29.742Z,12.56
2016-05-17T03:04:29.651Z,12.62
2016-05-17T03:05:29.185Z,12.62
2016-05-17T03:06:29.078Z,12.59
2016-05-17T03:07:30.393Z,12.6
2016-05-17T03:08:29.631Z,12.62
2016-05-17T03:09:29.164Z,12.56
2016-05-17T03:10:29.136Z,12.63
2016-05-17T03:11:30.467Z,12.54
2016-05-17T03:12:31.720Z,12.52
2016-05-17T03:13:29.206Z,12.52
2016-05-17T03:14:30.006Z,12.6
2016-05-17T03:15:29.289Z,12.48
2016-05-17T03:16:28.872Z,12.62
2016-05-17T03:17:29.389Z,12.51
2016-05-17T03:18:28.830Z,12.59
2016-05-17T03:19:28.645Z,12.62
2016-05-17T03:20:29.022Z,12.51
2016-05-17T03:21:29.634Z,12.52
2016-05-17T03:22:31.121Z,12.63
2016-05-17T03:23:28.671Z,12.64
2016-05-17T03:24:28.861Z,12.59
2016-05-17T03:25:28.691Z,12.54
2016-05-17T03:26:29.976Z,12.51
2016-05-17T03:27:29.651Z,12.54
2016-05-17T03:28:29.075Z,12.56
2016-05-17T03:29:30.234Z,12.57
2016-05-17T03:30:28.612Z,12.54
2016-05-17T03:31:28.536Z,12.62
2016-05-17T03:32:29.711Z,12.57
2016-05-17T03:33:28.636Z,12.54
2016-05-17T03:34:28.466Z,12.64
2016-05-17T03:35:28.391Z,12.57
2016-05-17T03:36:29.003Z,12.54
2016-05-17T03:37:28.553Z,12.56
2016-05-17T03:38:28.336Z,12.57
2016-05-17T03:39:28.012Z,12.52
2016-05-17T03:40:29.029Z,12.56
2016-05-17T03:41:28.267Z,12.57
2016-05-17T03:42:28.222Z,12.52
2016-05-17T03:43:28.615Z,12.56
2016-05-17T03:44:29.118Z,12.54
2016-05-17T03:45:28.886Z,12.57
2016-05-17T03:46:30.280Z,12.6
2016-05-17T03:47:29.282Z,12.52
2016-05-17T03:48:28.520Z,12.56
2016-05-17T03:49:29.647Z,12.52
2016-05-17T03:50:28.055Z,12.54
2016-05-17T03:51:28.122Z,12.56
2016-05-17T03:52:28.468Z,12.54
2016-05-17T03:53:27.971Z,12.51
2016-05-17T03:54:28.004Z,12.63
2016-05-17T03:55:28.179Z,12.56
2016-05-17T03:56:28.541Z,12.56
2016-05-17T03:57:28.278Z,12.59
2016-05-17T03:58:27.937Z,12.63
2016-05-17T03:59:27.799Z,12.6
2016-05-17T04:00:27.833Z,12.63
2016-05-17T04:01:27.867Z,12.62
2016-05-17T04:02:28.901Z,12.59
2016-05-17T04:03:27.887Z,12.59
2016-05-17T04:04:28.032Z,12.6
2016-05-17T04:05:27.675Z,12.52
2016-05-17T04:06:28.818Z,12.52
2016-05-17T04:07:28.149Z,12.63
2016-05-17T04:08:28.714Z,12.62
2016-05-17T04:09:27.576Z,12.6
2016-05-17T04:10:28.672Z,12.62
2016-05-17T04:11:27.378Z,12.6
2016-05-17T04:12:27.803Z,12.59
2016-05-17T04:13:27.603Z,12.56
2016-05-17T04:14:27.261Z,12.54
2016-05-17T04:15:27.811Z,12.62
2016-05-17T04:16:27.486Z,12.49
2016-05-17T04:17:27.425Z,12.52
2016-05-17T04:18:28.225Z,12.57
2016-05-17T04:19:28.071Z,12.6
2016-05-17T04:20:27.231Z,12.62
2016-05-17T04:21:27.265Z,12.56
2016-05-17T04:22:27.986Z,12.52
2016-05-17T04:23:27.333Z,12.63
2016-05-17T04:24:27.366Z,12.63
2016-05-17T04:25:27.197Z,12.59
2016-05-17T04:26:27.652Z,12.59
2016-05-17T04:27:27.343Z,12.59
2016-05-17T04:28:27.408Z,12.49
2016-05-17T04:29:27.302Z,12.59
2016-05-17T04:30:27.054Z,12.56
2016-05-17T04:31:27.760Z,12.49
2016-05-17T04:32:28.591Z,12.46
2016-05-17T04:33:26.828Z,12.59
2016-05-17T04:34:27.674Z,12.62
2016-05-17T04:35:27.708Z,12.59
2016-05-17T04:36:27.118Z,12.63
2016-05-17T04:37:27.543Z,12.63
2016-05-17T04:38:27.076Z,12.51
2016-05-17T04:39:26.876Z,12.56
2016-05-17T04:40:26.815Z,12.54
2016-05-17T04:41:27.115Z,12.52
2016-05-17T04:42:26.805Z,12.52
2016-05-17T04:43:26.792Z,12.51
2016-05-17T04:44:26.717Z,12.6
2016-05-17T04:45:26.720Z,12.54
2016-05-17T04:46:26.879Z,12.57
2016-05-17T04:47:26.959Z,12.57
2016-05-17T04:48:26.619Z,12.52
2016-05-17T04:49:26.574Z,12.54
2016-05-17T04:50:26.545Z,12.52
2016-05-17T04:51:26.969Z,12.54
2016-05-17T04:52:27.364Z,12.57
2016-05-17T04:53:26.789Z,12.54
2016-05-17T04:54:27.260Z,12.67
2016-05-17T04:55:26.622Z,12.63
2016-05-17T04:56:26.796Z,12.69
2016-05-17T04:57:26.627Z,12.69
2016-05-17T04:58:27.099Z,12.59
2016-05-17T04:59:26.710Z,12.66
2016-05-17T05:00:26.291Z,12.66
2016-05-17T05:01:26.685Z,12.7
2016-05-17T05:02:26.953Z,12.67
2016-05-17T05:03:26.518Z,12.67
2016-05-17T05:04:26.302Z,12.66
2016-05-17T05:05:26.445Z,12.69
2016-05-17T05:06:27.088Z,12.7
2016-05-17T05:07:26.450Z,12.71
2016-05-17T05:08:26.125Z,12.71
2016-05-17T05:09:26.118Z,12.71
2016-05-17T05:10:26.210Z,12.67
2016-05-17T05:11:26.147Z,12.7
2016-05-17T05:12:26.645Z,12.71
2016-05-17T05:13:26.207Z,12.71
2016-05-17T05:14:26.192Z,12.7
2016-05-17T05:15:26.272Z,12.74
2016-05-17T05:16:26.026Z,12.82
2016-05-17T05:17:26.480Z,12.77
2016-05-17T05:18:26.155Z,12.78
2016-05-17T05:19:26.153Z,12.75
2016-05-17T05:20:26.036Z,12.75
2016-05-17T05:21:26.309Z,12.79
2016-05-17T05:22:25.989Z,12.84
2016-05-17T05:23:27.356Z,12.78
2016-05-17T05:24:26.050Z,12.77
2016-05-17T05:25:26.040Z,12.77
2016-05-17T05:26:25.888Z,12.85
2016-05-17T05:27:26.111Z,12.85
2016-05-17T05:28:25.960Z,12.85
2016-05-17T05:29:26.073Z,12.99
2016-05-17T05:30:26.482Z,12.82
2016-05-17T05:31:26.454Z,12.89
2016-05-17T05:32:25.896Z,12.92
2016-05-17T05:33:25.884Z,12.95
2016-05-17T05:34:25.949Z,12.85
2016-05-17T05:35:25.671Z,12.87
2016-05-17T05:36:25.971Z,12.97
2016-05-17T05:37:26.818Z,12.88
2016-05-17T05:38:25.587Z,12.92
2016-05-17T05:39:25.730Z,12.92
2016-05-17T05:40:25.795Z,12.89
2016-05-17T05:41:26.048Z,12.89
2016-05-17T05:42:25.723Z,12.99
2016-05-17T05:43:25.585Z,13.04
2016-05-17T05:44:25.712Z,12.97
2016-05-17T05:45:26.981Z,12.93
2016-05-17T05:46:25.530Z,12.99
2016-05-17T05:47:26.392Z,13.04
2016-05-17T05:48:25.505Z,12.97
2016-05-17T05:49:25.459Z,13
2016-05-17T05:50:25.634Z,13.03
2016-05-17T05:51:26.028Z,12.97
2016-05-17T05:52:25.281Z,13.04
2016-05-17T05:53:25.190Z,13.02
2016-05-17T05:54:26.162Z,13.04
2016-05-17T05:55:25.945Z,13
2016-05-17T05:56:26.573Z,13.06
2016-05-17T05:57:25.389Z,13.02
2016-05-17T05:58:25.312Z,13.03
2016-05-17T05:59:25.269Z,13.03
2016-05-17T06:00:25.787Z,13.11
2016-05-17T06:01:25.180Z,13.07
2016-05-17T06:02:25.589Z,13.04
2016-05-17T06:03:25.764Z,13.11
2016-05-17T06:04:25.797Z,13.07
2016-05-17T06:05:25.206Z,13.07
2016-05-17T06:06:25.943Z,13.2
2016-05-17T06:07:25.055Z,13.12
2016-05-17T06:08:25.058Z,13.14
2016-05-17T06:09:24.967Z,13.18
2016-05-17T06:10:24.938Z,13.18
2016-05-17T06:11:25.597Z,13.18
2016-05-17T06:12:26.224Z,13.07
2016-05-17T06:13:26.415Z,13.09
2016-05-17T06:14:27.402Z,13.06
2016-05-17T06:15:25.155Z,13.17
2016-05-17T06:16:25.235Z,13.15
2016-05-17T06:17:26.067Z,13.14
2016-05-17T06:18:24.929Z,13.25
2016-05-17T06:19:24.587Z,13.11
2016-05-17T06:20:24.685Z,13.18
2016-05-17T06:21:25.343Z,13.12
2016-05-17T06:22:24.736Z,13.18
2016-05-17T06:23:24.629Z,13.15
2016-05-17T06:24:25.054Z,13.21
2016-05-17T06:25:24.807Z,13.21
2016-05-17T06:26:24.451Z,13.22
2016-05-17T06:27:24.563Z,13.21
2016-05-17T06:28:24.627Z,13.29
2016-05-17T06:29:24.740Z,13.3
2016-05-17T06:30:24.273Z,13.25
2016-05-17T06:31:24.808Z,13.3
2016-05-17T06:32:24.811Z,13.37
2016-05-17T06:33:25.126Z,13.3
2016-05-17T06:34:25.425Z,13.29
2016-05-17T06:35:24.741Z,13.37
2016-05-17T06:36:24.697Z,13.3
2016-05-17T06:37:24.777Z,13.4
2016-05-17T06:38:24.295Z,13.43
2016-05-17T06:39:24.407Z,13.4
2016-05-17T06:40:24.285Z,13.33
2016-05-17T06:41:24.444Z,13.38
2016-05-17T06:42:24.760Z,13.47
2016-05-17T06:43:24.215Z,13.49
2016-05-17T06:44:24.186Z,13.44
2016-05-17T06:45:24.299Z,13.47
2016-05-17T06:46:24.598Z,13.47
2016-05-17T06:47:24.132Z,13.47
2016-05-17T06:48:24.040Z,13.52
2016-05-17T06:49:24.074Z,13.51
2016-05-17T06:50:24.406Z,13.44
2016-05-17T06:51:24.080Z,13.51
2016-05-17T06:52:24.739Z,13.54
2016-05-17T06:53:24.632Z,13.62
2016-05-17T06:54:23.901Z,13.59
2016-05-17T06:55:23.684Z,13.56
2016-05-17T06:56:24.859Z,13.56
2016-05-17T06:57:25.002Z,13.56
2016-05-17T06:58:23.803Z,13.56
2016-05-17T06:59:23.789Z,13.58
2016-05-17T07:00:23.776Z,13.69
2016-05-17T07:01:23.731Z,13.69
2016-05-17T07:02:24.297Z,13.62
2016-05-17T07:03:23.534Z,13.71
2016-05-17T07:04:23.802Z,13.76
2016-05-17T07:05:23.899Z,13.76
2016-05-17T07:06:23.605Z,13.73
2016-05-17T07:07:23.748Z,13.77
2016-05-17T07:08:23.672Z,13.71
2016-05-17T07:09:23.519Z,13.77
2016-05-17T07:10:23.552Z,13.79
2016-05-17T07:11:23.305Z,13.79
2016-05-17T07:12:23.902Z,13.81
2016-05-17T07:13:23.608Z,13.8
2016-05-17T07:14:24.079Z,13.88
2016-05-17T07:15:23.379Z,13.83
2016-05-17T07:16:23.241Z,13.83
2016-05-17T07:17:23.385Z,13.94
2016-05-17T07:18:23.418Z,13.89
2016-05-17T07:19:23.280Z,13.95
2016-05-17T07:20:23.423Z,13.91
2016-05-17T07:21:23.473Z,13.94
2016-05-17T07:22:23.976Z,13.94
2016-05-17T07:23:23.197Z,14.04
2016-05-17T07:24:23.294Z,13.99
2016-05-17T07:25:23.109Z,14.07
2016-05-17T07:26:23.299Z,14.07
2016-05-17T07:27:23.834Z,14.1
2016-05-17T07:28:23.133Z,14.04
2016-05-17T07:29:23.386Z,14.07
2016-05-17T07:30:23.231Z,14.07
2016-05-17T07:31:23.172Z,14.14
2016-05-17T07:32:23.159Z,14.07
2016-05-17T07:33:23.084Z,14.21
2016-05-17T07:34:24.024Z,14.2
2016-05-17T07:35:23.480Z,14.28
2016-05-17T07:36:22.873Z,14.31
2016-05-17T07:37:23.078Z,14.29
2016-05-17T07:38:22.847Z,14.28
2016-05-17T07:39:23.022Z,14.37
2016-05-17T07:40:22.805Z,14.35
2016-05-17T07:41:22.793Z,14.38
2016-05-17T07:42:26.202Z,14.37
2016-05-17T07:43:22.735Z,14.32
2016-05-17T07:44:22.722Z,14.37
2016-05-17T07:45:22.646Z,14.39
2016-05-17T07:46:22.682Z,14.35
2016-05-17T07:47:22.700Z,14.42
2016-05-17T07:48:22.608Z,14.32
2016-05-17T07:49:22.783Z,14.46
2016-05-17T07:50:22.645Z,14.39
2016-05-17T07:51:22.335Z,14.42
2016-05-17T07:52:23.494Z,14.47
2016-05-17T07:53:22.543Z,14.49
2016-05-17T07:54:22.781Z,14.61
2016-05-17T07:55:22.626Z,14.6
2016-05-17T07:56:22.787Z,14.6
2016-05-17T07:57:23.461Z,14.64
2016-05-17T07:58:22.385Z,14.53
2016-05-17T07:59:22.795Z,14.64
2016-05-17T08:00:22.922Z,14.65
2016-05-17T08:01:22.612Z,14.62
2016-05-17T08:02:22.240Z,14.68
2016-05-17T08:03:22.227Z,14.69
2016-05-17T08:04:22.776Z,14.71
2016-05-17T08:05:22.325Z,14.69
2016-05-17T08:06:22.001Z,14.69
2016-05-17T08:07:22.238Z,14.69
2016-05-17T08:08:22.552Z,14.78
2016-05-17T08:09:22.165Z,14.67
2016-05-17T08:10:22.074Z,14.84
2016-05-17T08:11:22.889Z,14.78
2016-05-17T08:12:22.892Z,14.74
2016-05-17T08:13:21.988Z,14.87
2016-05-17T08:14:21.866Z,14.81
2016-05-17T08:15:21.821Z,14.81
2016-05-17T08:16:21.918Z,14.81
2016-05-17T08:17:21.905Z,14.75
2016-05-17T08:18:22.110Z,14.78
2016-05-17T08:19:21.848Z,14.81
2016-05-17T08:20:22.085Z,14.75
2016-05-17T08:21:21.743Z,14.83
2016-05-17T08:22:21.904Z,14.91
2016-05-17T08:23:21.952Z,14.94
2016-05-17T08:24:21.987Z,14.91
2016-05-17T08:25:22.129Z,14.95
2016-05-17T08:26:22.148Z,14.93
2016-05-17T08:27:21.698Z,15.01
2016-05-17T08:28:21.856Z,15.01
2016-05-17T08:29:21.640Z,15.01
2016-05-17T08:30:22.096Z,14.95
2016-05-17T08:31:22.318Z,15.02
2016-05-17T08:32:21.976Z,15.06
2016-05-17T08:33:21.586Z,15.06
2016-05-17T08:34:22.170Z,15.06
2016-05-17T08:35:21.561Z,15.13
2016-05-17T08:36:22.753Z,15.09
2016-05-17T08:37:21.456Z,15.13
2016-05-17T08:38:21.678Z,15.19
2016-05-17T08:39:21.949Z,15.15
2016-05-17T08:40:22.045Z,15.19
2016-05-17T08:41:21.342Z,15.19
2016-05-17T08:42:21.970Z,15.23
2016-05-17T08:43:21.628Z,15.23
2016-05-17T08:44:21.147Z,15.27
2016-05-17T08:45:21.243Z,15.38
2016-05-17T08:46:22.186Z,15.23
2016-05-17T08:47:21.499Z,15.28
2016-05-17T08:48:21.783Z,15.26
2016-05-17T08:49:21.332Z,15.36
2016-05-17T08:50:20.976Z,15.35
2016-05-17T08:51:21.212Z,15.36
2016-05-17T08:52:21.902Z,15.43
2016-05-17T08:53:22.046Z,15.48
2016-05-17T08:54:20.893Z,15.43
2016-05-17T08:55:21.115Z,15.42
2016-05-17T08:56:21.445Z,15.57
2016-05-17T08:57:21.182Z,15.59
2016-05-17T08:58:21.154Z,15.54
2016-05-17T08:59:20.750Z,15.67
2016-05-17T09:00:20.924Z,15.75
2016-05-17T09:01:20.849Z,15.64
2016-05-17T09:02:21.117Z,15.76
2016-05-17T09:03:20.901Z,15.75
2016-05-17T09:04:20.841Z,15.86
2016-05-17T09:05:20.781Z,15.88
2016-05-17T09:06:21.034Z,15.89
2016-05-17T09:07:21.786Z,15.94
2016-05-17T09:08:21.399Z,16.06
2016-05-17T09:09:38.280Z,15.99
2016-05-17T09:10:20.717Z,16.14
2016-05-17T09:11:20.501Z,16.12
2016-05-17T09:12:20.660Z,16.14
2016-05-17T09:13:33.430Z,16.15
2016-05-17T09:14:20.586Z,16.07
2016-05-17T09:15:20.450Z,16.09
2016-05-17T09:16:20.952Z,16.22
2016-05-17T09:17:20.580Z,16.3
2016-05-17T09:18:20.832Z,16.38
2016-05-17T09:19:20.647Z,16.48
2016-05-17T09:20:20.509Z,16.52
2016-05-17T09:21:20.480Z,16.55
2016-05-17T09:22:23.437Z,16.53
2016-05-17T09:23:20.393Z,16.58
2016-05-17T09:24:20.177Z,16.59
2016-05-17T09:25:20.366Z,16.68
2016-05-17T09:26:21.166Z,16.68
2016-05-17T09:27:20.466Z,16.75
2016-05-17T09:28:20.265Z,16.83
2016-05-17T09:29:20.971Z,16.8
2016-05-17T09:30:38.476Z,16.9
2016-05-17T09:31:20.226Z,17
2016-05-17T09:32:20.229Z,16.95
2016-05-17T09:33:20.138Z,16.9
2016-05-17T09:34:20.173Z,17.03
2016-05-17T09:35:20.081Z,16.99
2016-05-17T09:36:19.850Z,16.98
2016-05-17T09:37:20.446Z,17.1
2016-05-17T09:38:20.167Z,17.11
2016-05-17T09:39:20.092Z,17.08
2016-05-17T09:40:20.064Z,17.03
2016-05-17T09:41:20.019Z,17.04
2016-05-17T09:42:19.975Z,17.06
2016-05-17T09:43:20.009Z,17.07
2016-05-17T09:44:19.917Z,17.11
2016-05-17T09:45:19.920Z,17.11
2016-05-17T09:46:20.032Z,17.17
2016-05-17T09:47:19.754Z,17.17
2016-05-17T09:48:19.710Z,17.2
2016-05-17T09:49:19.837Z,17.18
2016-05-17T09:50:19.605Z,17.29
2016-05-17T09:51:19.827Z,17.22
2016-05-17T09:52:20.127Z,17.26
2016-05-17T09:53:19.958Z,17.29
2016-05-17T09:54:19.555Z,17.33
2016-05-17T09:55:19.821Z,17.4
2016-05-17T09:56:19.779Z,17.41
2016-05-17T09:57:19.578Z,17.43
2016-05-17T09:58:19.455Z,17.47
2016-05-17T09:59:19.568Z,17.48
2016-05-17T10:00:19.554Z,17.41
2016-05-17T10:01:19.729Z,17.59
2016-05-17T10:02:19.607Z,17.5
2016-05-17T10:03:19.515Z,17.62
2016-05-17T10:04:19.378Z,17.55
2016-05-17T10:05:19.334Z,17.57
2016-05-17T10:06:19.273Z,17.59
2016-05-17T10:07:19.401Z,17.63
2016-05-17T10:08:19.623Z,17.62
2016-05-17T10:09:19.189Z,17.7
2016-05-17T10:10:19.706Z,17.7
2016-05-17T10:11:19.459Z,17.76
2016-05-17T10:12:19.321Z,17.79
2016-05-17T10:13:19.246Z,17.79
2016-05-17T10:14:19.342Z,17.79
2016-05-17T10:15:19.298Z,17.85
2016-05-17T10:16:19.379Z,17.92
2016-05-17T10:17:19.460Z,17.89
2016-05-17T10:18:19.197Z,17.94
2016-05-17T10:19:19.169Z,17.87
2016-05-17T10:20:19.249Z,18.07
2016-05-17T10:21:19.564Z,18.03
2016-05-17T10:22:20.067Z,18.07
2016-05-17T10:23:19.491Z,18.07
2016-05-17T10:24:19.182Z,18.04
2016-05-17T10:25:18.746Z,18.07
2016-05-17T10:26:19.016Z,18.1
2016-05-17T10:27:19.033Z,18.22
2016-05-17T10:28:18.973Z,18.15
2016-05-17T10:29:18.977Z,18.17
2016-05-17T10:30:19.401Z,18.27
2016-05-17T10:31:18.918Z,18.24
2016-05-17T10:32:18.797Z,18.28
2016-05-17T10:33:19.018Z,18.36
2016-05-17T10:34:18.834Z,18.36
2016-05-17T10:35:18.915Z,18.39
2016-05-17T10:36:18.932Z,18.36
2016-05-17T10:37:19.153Z,18.29
2016-05-17T10:38:18.782Z,18.39
2016-05-17T10:39:18.769Z,18.36
2016-05-17T10:40:18.834Z,18.27
2016-05-17T10:41:18.493Z,18.25
2016-05-17T10:42:18.621Z,18.19
2016-05-17T10:43:18.670Z,18.28
2016-05-17T10:44:18.564Z,18.18
2016-05-17T10:45:18.707Z,18.33
2016-05-17T10:46:18.444Z,18.39
2016-05-17T10:47:18.509Z,18.42
2016-05-17T10:48:18.653Z,18.58
2016-05-17T10:49:18.514Z,18.59
2016-05-17T10:50:18.220Z,18.58
2016-05-17T10:51:18.505Z,18.57
2016-05-17T10:52:32.025Z,18.62
2016-05-17T10:53:18.510Z,18.57
2016-05-17T10:54:18.372Z,18.54
2016-05-17T10:55:18.358Z,18.46
2016-05-17T10:56:18.393Z,18.58
2016-05-17T10:57:18.177Z,18.5
2016-05-17T10:58:18.366Z,18.58
2016-05-17T10:59:21.369Z,18.47
2016-05-17T11:00:18.122Z,18.54
2016-05-17T11:01:18.329Z,18.54
2016-05-17T11:02:18.268Z,18.54
2016-05-17T11:03:18.084Z,18.55
2016-05-17T11:04:18.726Z,18.59
2016-05-17T11:05:17.979Z,18.67
2016-05-17T11:06:18.217Z,18.67
2016-05-17T11:07:17.953Z,18.7
2016-05-17T11:08:18.128Z,18.74
2016-05-17T11:09:17.881Z,18.68
2016-05-17T11:10:18.103Z,18.65
2016-05-17T11:11:17.886Z,18.68
2016-05-17T11:12:18.154Z,18.59
2016-05-17T11:13:17.938Z,18.59
2016-05-17T11:14:18.488Z,18.55
2016-05-17T11:15:17.897Z,18.43
2016-05-17T11:16:17.743Z,18.36
2016-05-17T11:17:17.886Z,18.27
2016-05-17T11:18:17.874Z,18.13
2016-05-17T11:19:17.673Z,18.09
2016-05-17T11:20:17.880Z,18.07
2016-05-17T11:21:17.679Z,18.1
2016-05-17T11:22:17.696Z,18.09
2016-05-17T11:23:17.793Z,18.06
2016-05-17T11:24:17.828Z,17.95
2016-05-17T11:25:17.689Z,17.88
2016-05-17T11:26:17.661Z,17.97
2016-05-17T11:27:17.805Z,17.89
2016-05-17T11:28:17.651Z,18.06
2016-05-17T11:29:17.622Z,18.09
2016-05-17T11:30:17.577Z,18.09
2016-05-17T11:31:17.643Z,18.24
2016-05-17T11:32:20.646Z,18.28
2016-05-17T11:33:17.665Z,18.39
2016-05-17T11:34:17.573Z,18.57
2016-05-17T11:35:17.513Z,18.67
2016-05-17T11:36:17.516Z,18.7
2016-05-17T11:37:17.362Z,18.9
2016-05-17T11:38:17.427Z,18.8
2016-05-17T11:39:17.431Z,18.77
2016-05-17T11:40:17.433Z,18.79
2016-05-17T11:41:18.014Z,18.65
2016-05-17T11:42:17.392Z,18.7
2016-05-17T11:43:17.925Z,18.7
2016-05-17T11:44:17.319Z,18.57
2016-05-17T11:45:17.352Z,18.58
2016-05-17T11:46:17.324Z,18.57
2016-05-17T11:47:17.295Z,18.54
2016-05-17T11:48:17.283Z,18.49
2016-05-17T11:49:17.347Z,18.59
2016-05-17T11:50:17.210Z,18.5
2016-05-17T11:51:17.275Z,18.5
2016-05-17T11:52:16.824Z,18.47
2016-05-17T11:53:17.561Z,18.42
2016-05-17T11:54:17.096Z,18.5
2016-05-17T11:55:17.379Z,18.42
2016-05-17T11:56:16.929Z,18.43
2016-05-17T11:57:16.838Z,18.46
2016-05-17T11:58:17.121Z,18.44
2016-05-17T11:59:16.969Z,18.4
2016-05-17T12:00:18.128Z,18.54
2016-05-17T12:01:17.332Z,18.55
2016-05-17T12:02:17.085Z,18.57
2016-05-17T12:03:17.073Z,18.86
2016-05-17T12:04:16.669Z,19.29
2016-05-17T12:05:16.937Z,19.2
2016-05-17T12:06:18.691Z,19.1
2016-05-17T12:07:16.943Z,19.11
2016-05-17T12:08:17.539Z,19.01
2016-05-17T12:09:16.964Z,18.94
2016-05-17T12:10:16.889Z,18.86
2016-05-17T12:11:17.094Z,18.72
2016-05-17T12:12:16.800Z,18.68
2016-05-17T12:13:18.553Z,18.57
2016-05-17T12:14:18.118Z,18.58
2016-05-17T12:15:16.652Z,18.49
2016-05-17T12:16:17.014Z,18.42
2016-05-17T12:17:17.923Z,18.47
2016-05-17T12:18:17.769Z,18.49
2016-05-17T12:19:22.772Z,18.55
2016-05-17T12:20:16.728Z,18.57
2016-05-17T12:21:16.606Z,18.65
2016-05-17T12:22:17.749Z,18.83
2016-05-17T12:23:17.002Z,18.95
2016-05-17T12:24:16.676Z,18.97
2016-05-17T12:25:30.319Z,19.13
2016-05-17T12:26:16.916Z,19.2
2016-05-17T12:27:18.450Z,19.21
2016-05-17T12:28:18.749Z,19.14
2016-05-17T12:29:18.096Z,19.11
2016-05-17T12:30:16.880Z,19.13
2016-05-17T12:31:16.446Z,19.05
2016-05-17T12:32:18.119Z,18.9
2016-05-17T12:33:17.951Z,18.79
2016-05-17T12:34:16.438Z,18.65
2016-05-17T12:35:16.268Z,18.59
2016-05-17T12:36:16.255Z,18.42
2016-05-17T12:37:16.351Z,18.37
2016-05-17T12:38:17.245Z,18.28
2016-05-17T12:39:16.404Z,18.19
2016-05-17T12:40:16.938Z,18.22
2016-05-17T12:41:15.987Z,18.18
2016-05-17T12:42:16.584Z,18.02
2016-05-17T12:43:16.149Z,18
2016-05-17T12:44:16.621Z,18.07
2016-05-17T12:45:16.483Z,17.92
2016-05-17T12:46:16.407Z,17.84
2016-05-17T12:47:15.832Z,17.89
2016-05-17T12:48:16.366Z,17.88
2016-05-17T12:49:15.977Z,17.84
2016-05-17T12:50:16.339Z,17.81
2016-05-17T12:51:16.155Z,17.76
2016-05-17T12:52:16.877Z,17.76
2016-05-17T12:53:16.019Z,17.73
2016-05-17T12:54:16.163Z,17.73
2016-05-17T12:55:16.369Z,17.69